Time;durP1;ratioP1;P1;durP2;ratioP2;P2;SDS_P1;SDS_P2;PMS_P1;PMS_P2;Temp;Humidity;BMP_temperature;BMP_pressure;BME280_temperature;BME280_humidity;BME280_pressure;Samples;Min_cycle;Max_cycle;Signal;HPM_P1;HPM_P2
2023/06/12 00:01:39;;;;;;;;;;;18.80;82.20;;;;;;5074572;28;20263;-82
2023/06/12 00:04:06;;;;;;;;;;;18.70;83.20;;;;;;5074399;28;20013;-81
2023/06/12 00:06:32;;;;;;;;;;;18.60;83.10;;;;;;5074664;28;19921;-81
2023/06/12 00:08:57;;;;;;;;;;;18.60;83.40;;;;;;5074173;28;19932;-81
2023/06/12 00:11:23;;;;;;;;;;;18.60;81.90;;;;;;5075291;28;19921;-81
2023/06/12 00:13:49;;;;;;;;;;;18.60;82.50;;;;;;5074371;28;19943;-81
2023/06/12 00:16:16;;;;;;;;;;;18.60;83.40;;;;;;5075157;28;20382;-81
2023/06/12 00:18:42;;;;;;;;;;;18.60;81.90;;;;;;5073575;28;19924;-81
2023/06/12 00:21:09;;;;;;;;;;;18.60;82.50;;;;;;5073600;28;20042;-83
2023/06/12 00:23:35;;;;;;;;;;;18.50;81.50;;;;;;5074614;28;20017;-84
2023/06/12 00:26:00;;;;;;;;;;;18.50;82.70;;;;;;5074287;28;19968;-82
2023/06/12 00:28:26;;;;;;;;;;;18.50;85.40;;;;;;5075357;28;20023;-81
2023/06/12 00:30:51;;;;;;;;;;;18.50;83.40;;;;;;5074954;28;19928;-81
2023/06/12 00:33:17;;;;;;;;;;;18.50;81.40;;;;;;5074458;28;19936;-84
2023/06/12 00:35:43;;;;;;;;;;;18.50;82.00;;;;;;5074714;28;20401;-82
2023/06/12 00:38:08;;;;;;;;;;;18.50;82.00;;;;;;5074299;28;19920;-81
2023/06/12 00:40:34;;;;;;;;;;;18.50;81.90;;;;;;5073566;28;19935;-81
2023/06/12 00:42:59;;;;;;;;;;;18.50;81.80;;;;;;5074391;28;19927;-81
2023/06/12 00:45:26;;;;;;;;;;;18.50;81.60;;;;;;5073512;28;19924;-81
2023/06/12 00:47:55;;;;;;;;;;;18.40;82.20;;;;;;5073068;28;19920;-81
2023/06/12 00:50:25;;;;;;;;;;;18.40;81.50;;;;;;5074237;28;20351;-81
2023/06/12 00:52:51;;;;;;;;;;;18.40;82.70;;;;;;5073659;28;19921;-81
2023/06/12 00:55:17;;;;;;;;;;;18.30;83.20;;;;;;5072823;28;19946;-81
2023/06/12 00:57:43;;;;;;;;;;;18.30;84.30;;;;;;5073217;28;19921;-81
2023/06/12 01:00:11;;;;;;;;;;;18.20;83.80;;;;;;5075050;28;19924;-81
2023/06/12 01:02:39;;;;;;;;;;;18.20;83.20;;;;;;5073153;28;20417;-82
2023/06/12 01:05:10;;;;;;;;;;;18.10;83.60;;;;;;5073266;28;20248;-81
2023/06/12 01:07:50;;;;;;;;;;;18.10;84.20;;;;;;5073962;28;20419;-81
2023/06/12 01:10:34;;;;;;;;;;;18.10;86.20;;;;;;5073466;28;19920;-81
2023/06/12 01:12:59;;;;;;;;;;;18.00;84.60;;;;;;5073386;28;19921;-81
2023/06/12 01:15:25;;;;;;;;;;;18.00;85.50;;;;;;5073823;28;19921;-81
2023/06/12 01:17:51;;;;;;;;;;;17.90;86.80;;;;;;5074022;28;19928;-82
2023/06/12 01:20:17;;;;;;;;;;;17.90;88.30;;;;;;5073830;28;19928;-82
2023/06/12 01:22:52;;;;;;;;;;;17.70;90.10;;;;;;5074486;28;19927;-82
2023/06/12 01:25:36;;;;;;;;;;;17.70;89.10;;;;;;5073123;28;20346;-81
2023/06/12 01:28:18;;;;;;;;;;;17.60;90.10;;;;;;5072074;28;19928;-82
2023/06/12 01:30:49;;;;;;;;;;;17.50;90.70;;;;;;5072587;28;20318;-81
2023/06/12 01:33:17;;;;;;;;;;;17.40;91.00;;;;;;5074028;28;20021;-81
2023/06/12 01:35:45;;;;;;;;;;;17.30;90.70;;;;;;5072489;28;20011;-81
2023/06/12 01:38:17;;;;;;;;;;;17.20;91.20;;;;;;5073317;28;19920;-81
2023/06/12 01:40:44;;;;;;;;;;;17.20;91.30;;;;;;5055885;28;20275;-82
2023/06/12 01:43:10;;;;;;;;;;;17.20;92.20;;;;;;5073455;28;20007;-82
2023/06/12 01:45:37;;;;;;;;;;;17.10;92.20;;;;;;5072345;28;20438;-81
2023/06/12 01:48:04;;;;;;;;;;;17.10;91.20;;;;;;5056182;28;20274;-80
2023/06/12 01:50:29;;;;;;;;;;;17.00;92.50;;;;;;5072839;28;19928;-81
2023/06/12 01:52:55;;;;;;;;;;;17.00;93.20;;;;;;5072604;28;19935;-80
2023/06/12 01:55:21;;;;;;;;;;;16.90;92.50;;;;;;5071978;28;19921;-81
2023/06/12 01:57:48;;;;;;;;;;;16.90;93.80;;;;;;5074890;28;19928;-81
2023/06/12 02:00:14;;;;;;;;;;;16.80;94.00;;;;;;5074330;28;19921;-80
2023/06/12 02:02:40;;;;;;;;;;;16.80;95.10;;;;;;5073841;28;19927;-83
2023/06/12 02:05:06;;;;;;;;;;;16.70;95.20;;;;;;5072497;28;19920;-80
2023/06/12 02:07:31;;;;;;;;;;;16.70;95.50;;;;;;5073508;28;19970;-81
2023/06/12 02:09:57;;;;;;;;;;;16.60;95.90;;;;;;5073674;28;19931;-81
2023/06/12 02:12:23;;;;;;;;;;;16.60;96.40;;;;;;5056382;28;20004;-80
2023/06/12 02:14:50;;;;;;;;;;;16.60;96.40;;;;;;5073169;28;19927;-80
2023/06/12 02:17:19;;;;;;;;;;;16.50;96.70;;;;;;5072720;28;19924;-83
2023/06/12 02:19:45;;;;;;;;;;;16.50;97.00;;;;;;5072204;28;20011;-81
2023/06/12 02:22:11;;;;;;;;;;;16.50;97.60;;;;;;5072969;28;20014;-81
2023/06/12 02:24:37;;;;;;;;;;;16.40;97.50;;;;;;5073089;28;20008;-80
2023/06/12 02:27:03;;;;;;;;;;;16.40;97.30;;;;;;5072562;28;19920;-83
2023/06/12 02:29:28;;;;;;;;;;;16.40;97.90;;;;;;5072056;28;19927;-81
2023/06/12 02:31:54;;;;;;;;;;;16.30;98.10;;;;;;5072927;28;20263;-81
2023/06/12 02:34:19;;;;;;;;;;;16.30;98.30;;;;;;5071663;28;19970;-81
2023/06/12 02:36:46;;;;;;;;;;;16.30;98.30;;;;;;5072747;28;19927;-81
2023/06/12 02:39:12;;;;;;;;;;;16.20;99.30;;;;;;5073042;28;20244;-82
2023/06/12 02:41:42;;;;;;;;;;;16.20;99.70;;;;;;5072342;28;19974;-81
2023/06/12 02:44:07;;;;;;;;;;;16.20;99.70;;;;;;5074868;28;19994;-81
2023/06/12 02:46:33;;;;;;;;;;;16.10;99.90;;;;;;5076743;28;19943;-81
2023/06/12 02:48:59;;;;;;;;;;;16.10;99.90;;;;;;5075368;28;19966;-81
2023/06/12 02:51:25;;;;;;;;;;;16.10;99.90;;;;;;5075616;28;20302;-82
2023/06/12 02:53:50;;;;;;;;;;;16.00;99.90;;;;;;5075484;28;19928;-81
2023/06/12 02:56:16;;;;;;;;;;;16.00;99.90;;;;;;5074876;28;19920;-82
2023/06/12 02:58:41;;;;;;;;;;;15.90;99.90;;;;;;5075308;28;19927;-81
2023/06/12 03:01:07;;;;;;;;;;;15.90;99.90;;;;;;5058700;28;20057;-81
2023/06/12 03:03:32;;;;;;;;;;;15.90;99.90;;;;;;5075509;28;19935;-81
2023/06/12 03:05:58;;;;;;;;;;;15.90;99.90;;;;;;5057773;28;19921;-83
2023/06/12 03:08:23;;;;;;;;;;;15.90;99.90;;;;;;5075002;28;19921;-81
2023/06/12 03:10:49;;;;;;;;;;;15.90;99.90;;;;;;5076056;28;20397;-81
2023/06/12 03:13:15;;;;;;;;;;;15.90;99.90;;;;;;5076857;28;19920;-81
2023/06/12 03:15:40;;;;;;;;;;;15.80;99.90;;;;;;5075260;28;20217;-82
2023/06/12 03:18:06;;;;;;;;;;;15.80;99.90;;;;;;5058117;28;19920;-81
2023/06/12 03:20:34;;;;;;;;;;;15.80;99.90;;;;;;5075997;28;19966;-81
2023/06/12 03:23:00;;;;;;;;;;;15.80;99.90;;;;;;5074753;28;19927;-81
2023/06/12 03:25:26;;;;;;;;;;;15.80;99.90;;;;;;5074595;28;19921;-83
2023/06/12 03:27:52;;;;;;;;;;;15.80;99.90;;;;;;5074574;28;19943;-81
2023/06/12 03:30:17;;;;;;;;;;;15.70;99.90;;;;;;5075694;28;20367;-80
2023/06/12 03:32:43;;;;;;;;;;;15.60;99.90;;;;;;5075756;28;19975;-81
2023/06/12 03:35:09;;;;;;;;;;;15.70;99.90;;;;;;5075712;28;19963;-81
2023/06/12 03:37:34;;;;;;;;;;;15.70;99.90;;;;;;5075726;28;19920;-82
2023/06/12 03:40:00;;;;;;;;;;;15.70;99.90;;;;;;5074500;28;19920;-81
2023/06/12 03:42:25;;;;;;;;;;;15.70;99.90;;;;;;5076402;28;20262;-80
2023/06/12 03:44:52;;;;;;;;;;;15.70;99.90;;;;;;5075243;28;19921;-81
2023/06/12 03:47:18;;;;;;;;;;;15.70;99.90;;;;;;5075595;28;19925;-81
2023/06/12 03:49:43;;;;;;;;;;;15.70;99.90;;;;;;5074819;28;19943;-81
2023/06/12 03:52:09;;;;;;;;;;;15.80;99.90;;;;;;5074860;28;19921;-81
2023/06/12 03:54:35;;;;;;;;;;;15.90;99.90;;;;;;5074442;28;19920;-81
2023/06/12 03:57:00;;;;;;;;;;;15.90;99.90;;;;;;5075318;28;20197;-81
2023/06/12 03:59:26;;;;;;;;;;;15.90;99.90;;;;;;5075236;28;20019;-81
2023/06/12 04:01:52;;;;;;;;;;;16.00;99.90;;;;;;5074299;28;20382;-81
2023/06/12 04:04:18;;;;;;;;;;;15.90;99.90;;;;;;5074953;28;19924;-81
2023/06/12 04:06:47;;;;;;;;;;;15.90;99.90;;;;;;5074279;28;20331;-81
2023/06/12 04:09:14;;;;;;;;;;;16.00;99.90;;;;;;5075244;28;19968;-81
2023/06/12 04:11:40;;;;;;;;;;;16.00;99.90;;;;;;5075174;28;19966;-80
2023/06/12 04:14:06;;;;;;;;;;;15.90;99.90;;;;;;5075121;28;20259;-80
2023/06/12 04:16:32;;;;;;;;;;;16.00;99.90;;;;;;5073615;28;19921;-81
2023/06/12 04:19:03;;;;;;;;;;;15.90;99.90;;;;;;5073736;28;20011;-81
2023/06/12 04:21:35;;;;;;;;;;;16.00;99.90;;;;;;5074548;28;20061;-81
2023/06/12 04:24:02;;;;;;;;;;;16.00;99.90;;;;;;5074717;28;19921;-81
2023/06/12 04:26:31;;;;;;;;;;;16.10;99.90;;;;;;5073654;28;19932;-81
2023/06/12 04:28:56;;;;;;;;;;;16.10;99.90;;;;;;5074555;28;20239;-81
2023/06/12 04:31:23;;;;;;;;;;;16.20;99.90;;;;;;5075184;28;20018;-81
2023/06/12 04:33:51;;;;;;;;;;;16.20;99.90;;;;;;5073794;28;19920;-80
2023/06/12 04:36:17;;;;;;;;;;;16.30;99.90;;;;;;5073637;28;19928;-82
2023/06/12 04:38:43;;;;;;;;;;;16.40;99.90;;;;;;5073830;28;19920;-81
2023/06/12 04:41:10;;;;;;;;;;;16.50;99.90;;;;;;5074304;28;19974;-81
2023/06/12 04:43:36;;;;;;;;;;;16.60;99.90;;;;;;5074426;28;20278;-81
2023/06/12 04:46:02;;;;;;;;;;;16.60;99.90;;;;;;5074301;28;19924;-82
2023/06/12 04:48:28;;;;;;;;;;;16.70;99.90;;;;;;5074473;28;20393;-81
2023/06/12 04:50:54;;;;;;;;;;;16.90;99.90;;;;;;5072874;28;19965;-81
2023/06/12 04:53:30;;;;;;;;;;;17.20;99.90;;;;;;5074013;28;19924;-81
2023/06/12 04:55:56;;;;;;;;;;;17.30;99.90;;;;;;5072698;28;19920;-85
2023/06/12 04:58:21;;;;;;;;;;;17.40;99.90;;;;;;5074020;28;19920;-81
2023/06/12 05:00:50;;;;;;;;;;;17.40;99.90;;;;;;5073062;28;20258;-81
2023/06/12 05:03:17;;;;;;;;;;;17.50;99.90;;;;;;5073385;28;19966;-81
2023/06/12 05:05:46;;;;;;;;;;;17.60;99.90;;;;;;5055872;28;19920;-81
2023/06/12 05:08:11;;;;;;;;;;;17.70;99.90;;;;;;5073167;28;19920;-81
2023/06/12 05:10:37;;;;;;;;;;;17.90;99.90;;;;;;5073174;28;19935;-81
2023/06/12 05:13:03;;;;;;;;;;;18.20;99.90;;;;;;5074008;28;19920;-82
2023/06/12 05:15:29;;;;;;;;;;;18.60;99.90;;;;;;5073779;28;20219;-82
2023/06/12 05:17:54;;;;;;;;;;;19.20;99.90;;;;;;5072581;28;19921;-84
2023/06/12 05:20:20;;;;;;;;;;;19.80;99.90;;;;;;5055989;28;20390;-81
2023/06/12 05:22:46;;;;;;;;;;;20.20;99.90;;;;;;5073871;28;19986;-81
2023/06/12 05:25:12;;;;;;;;;;;20.60;99.30;;;;;;5072635;28;19920;-81
2023/06/12 05:27:38;;;;;;;;;;;20.90;98.40;;;;;;5072419;28;20031;-83
2023/06/12 05:30:06;;;;;;;;;;;21.30;97.90;;;;;;5072417;28;19959;-81
2023/06/12 05:32:31;;;;;;;;;;;21.50;97.20;;;;;;5072589;28;19920;-83
2023/06/12 05:34:57;;;;;;;;;;;21.90;96.80;;;;;;5073673;28;19928;-82
2023/06/12 05:37:22;;;;;;;;;;;22.20;95.90;;;;;;5072294;28;20012;-85
2023/06/12 05:39:48;;;;;;;;;;;22.40;95.30;;;;;;5073682;28;19920;-82
2023/06/12 05:42:14;;;;;;;;;;;22.60;94.40;;;;;;5073784;28;19963;-81
2023/06/12 05:44:39;;;;;;;;;;;22.80;94.90;;;;;;5074022;28;19943;-81
2023/06/12 05:47:05;;;;;;;;;;;23.10;94.10;;;;;;5074629;28;20274;-81
2023/06/12 05:49:31;;;;;;;;;;;23.30;93.00;;;;;;5075580;28;19921;-81
2023/06/12 05:51:56;;;;;;;;;;;23.50;93.00;;;;;;5057189;28;19927;-81
2023/06/12 05:54:22;;;;;;;;;;;23.80;93.30;;;;;;5072879;28;19927;-81
2023/06/12 05:56:48;;;;;;;;;;;24.00;92.40;;;;;;5073953;28;19970;-83
2023/06/12 05:59:13;;;;;;;;;;;24.30;91.10;;;;;;5073419;28;19977;-83
2023/06/12 06:01:39;;;;;;;;;;;24.50;91.20;;;;;;5073286;28;20007;-81
2023/06/12 06:04:06;;;;;;;;;;;24.70;90.20;;;;;;5073128;28;19927;-82
2023/06/12 06:06:31;;;;;;;;;;;25.00;89.70;;;;;;5073345;28;19920;-83
2023/06/12 06:08:57;;;;;;;;;;;25.20;88.10;;;;;;5072892;28;20263;-82
2023/06/12 06:11:22;;;;;;;;;;;25.30;85.20;;;;;;5056115;28;19920;-82
2023/06/12 06:13:48;;;;;;;;;;;25.30;83.40;;;;;;5073730;28;20027;-81
2023/06/12 06:16:14;;;;;;;;;;;25.40;84.50;;;;;;5073527;28;20335;-82
2023/06/12 06:18:40;;;;;;;;;;;25.50;81.20;;;;;;5074859;28;19981;-81
2023/06/12 06:21:05;;;;;;;;;;;25.60;81.10;;;;;;5077132;28;19920;-81
2023/06/12 06:23:32;;;;;;;;;;;25.80;82.60;;;;;;5076272;28;19921;-82
2023/06/12 06:25:57;;;;;;;;;;;26.10;82.50;;;;;;5077037;28;19920;-83
2023/06/12 06:28:23;;;;;;;;;;;26.30;79.00;;;;;;5077489;28;19920;-82
2023/06/12 06:30:48;;;;;;;;;;;26.70;79.20;;;;;;5077057;28;20347;-83
2023/06/12 06:33:14;;;;;;;;;;;27.00;77.20;;;;;;5076008;28;19994;-82
2023/06/12 06:35:40;;;;;;;;;;;27.20;77.70;;;;;;5076997;28;19920;-82
2023/06/12 06:38:05;;;;;;;;;;;27.50;75.70;;;;;;5077360;28;19920;-83
2023/06/12 06:40:31;;;;;;;;;;;27.60;73.80;;;;;;5076678;28;19921;-82
2023/06/12 06:42:57;;;;;;;;;;;27.50;71.60;;;;;;5075941;28;19920;-81
2023/06/12 06:45:22;;;;;;;;;;;27.70;71.60;;;;;;5075576;28;20021;-82
2023/06/12 06:47:48;;;;;;;;;;;27.60;71.10;;;;;;5076756;28;20255;-82
2023/06/12 06:50:13;;;;;;;;;;;27.80;71.00;;;;;;5076333;28;19920;-83
2023/06/12 06:52:39;;;;;;;;;;;27.90;72.10;;;;;;5076452;28;19971;-83
2023/06/12 06:55:05;;;;;;;;;;;27.80;72.60;;;;;;5075633;28;19927;-83
2023/06/12 06:57:30;;;;;;;;;;;27.70;72.90;;;;;;5075970;28;19921;-84
2023/06/12 06:59:57;;;;;;;;;;;27.80;72.80;;;;;;5058841;28;20324;-83
2023/06/12 07:02:22;;;;;;;;;;;28.10;73.40;;;;;;5075541;28;20010;-83
2023/06/12 07:04:49;;;;;;;;;;;28.30;72.00;;;;;;5076256;28;19982;-83
2023/06/12 07:07:15;;;;;;;;;;;28.60;70.90;;;;;;5075383;28;19920;-84
2023/06/12 07:09:40;;;;;;;;;;;28.90;68.50;;;;;;5075418;28;19920;-82
2023/06/12 07:12:06;;;;;;;;;;;29.00;69.00;;;;;;5076318;28;19920;-82
2023/06/12 07:14:31;;;;;;;;;;;29.10;66.70;;;;;;5076237;28;19921;-84
2023/06/12 07:16:57;;;;;;;;;;;29.30;68.70;;;;;;5076219;28;19924;-82
2023/06/12 07:19:22;;;;;;;;;;;29.40;65.50;;;;;;5058556;28;19993;-82
2023/06/12 07:21:49;;;;;;;;;;;29.60;62.80;;;;;;5075964;28;19921;-83
2023/06/12 07:24:17;;;;;;;;;;;29.50;63.50;;;;;;5057958;28;19964;-84
2023/06/12 07:26:43;;;;;;;;;;;29.60;64.90;;;;;;5074947;28;20437;-83
2023/06/12 07:29:08;;;;;;;;;;;29.70;62.80;;;;;;5076075;28;19920;-83
2023/06/12 07:31:34;;;;;;;;;;;29.90;63.90;;;;;;5076252;28;20240;-83
2023/06/12 07:33:59;;;;;;;;;;;30.00;62.90;;;;;;5058792;28;20014;-83
2023/06/12 07:36:25;;;;;;;;;;;30.10;63.50;;;;;;5076049;28;19920;-82
2023/06/12 07:38:51;;;;;;;;;;;30.20;61.10;;;;;;5074722;28;19920;-83
2023/06/12 07:41:17;;;;;;;;;;;30.20;59.70;;;;;;5075700;28;19924;-84
2023/06/12 07:43:43;;;;;;;;;;;30.10;62.90;;;;;;5075003;28;19921;-86
2023/06/12 07:46:08;;;;;;;;;;;30.20;60.30;;;;;;5075768;28;19942;-83
2023/06/12 07:48:34;;;;;;;;;;;30.40;60.50;;;;;;5076025;28;20063;-82
2023/06/12 07:50:59;;;;;;;;;;;30.40;62.60;;;;;;5075803;28;20011;-82
2023/06/12 07:53:25;;;;;;;;;;;30.40;61.00;;;;;;5075185;28;20011;-83
2023/06/12 07:55:51;;;;;;;;;;;30.50;60.00;;;;;;5074549;28;19928;-82
2023/06/12 07:58:17;;;;;;;;;;;30.50;61.40;;;;;;5074812;28;20343;-83
2023/06/12 08:00:42;;;;;;;;;;;30.50;60.60;;;;;;5076430;28;20404;-83
2023/06/12 08:03:08;;;;;;;;;;;30.60;59.60;;;;;;5074306;28;19924;-83
2023/06/12 08:05:34;;;;;;;;;;;30.50;60.40;;;;;;5076021;28;19982;-82
2023/06/12 08:08:00;;;;;;;;;;;30.20;59.80;;;;;;5075374;28;20240;-83
2023/06/12 08:10:26;;;;;;;;;;;30.20;61.70;;;;;;5074365;28;19939;-82
2023/06/12 08:12:52;;;;;;;;;;;30.30;59.90;;;;;;5074370;28;20317;-83
2023/06/12 08:15:17;;;;;;;;;;;30.50;61.50;;;;;;5075569;28;19924;-83
2023/06/12 08:17:43;;;;;;;;;;;30.40;60.40;;;;;;5075158;28;19928;-83
2023/06/12 08:20:10;;;;;;;;;;;30.50;61.80;;;;;;5075663;28;19931;-83
2023/06/12 08:22:36;;;;;;;;;;;30.40;60.60;;;;;;5074159;28;19990;-84
2023/06/12 08:25:06;;;;;;;;;;;30.50;60.40;;;;;;5074752;28;19947;-83
2023/06/12 08:27:32;;;;;;;;;;;30.80;61.70;;;;;;5074909;28;20393;-82
2023/06/12 08:29:58;;;;;;;;;;;30.90;61.10;;;;;;5073917;28;19935;-83
2023/06/12 08:32:24;;;;;;;;;;;31.00;60.20;;;;;;5073971;28;20011;-83
2023/06/12 08:34:50;;;;;;;;;;;31.10;60.60;;;;;;5074769;28;20374;-82
2023/06/12 08:37:17;;;;;;;;;;;31.20;60.80;;;;;;5074741;28;19924;-82
2023/06/12 08:39:42;;;;;;;;;;;31.40;60.00;;;;;;5073085;28;19932;-82
2023/06/12 08:42:09;;;;;;;;;;;31.50;60.60;;;;;;5074471;28;19924;-84
2023/06/12 08:44:35;;;;;;;;;;;31.60;59.30;;;;;;5074594;28;19924;-83
2023/06/12 08:47:03;;;;;;;;;;;31.60;57.40;;;;;;5073674;28;19931;-83
2023/06/12 08:49:29;;;;;;;;;;;31.60;58.20;;;;;;5074386;28;19947;-83
2023/06/12 08:51:55;;;;;;;;;;;31.60;57.50;;;;;;5074463;28;19947;-84
2023/06/12 08:54:21;;;;;;;;;;;31.60;58.20;;;;;;5072945;28;20336;-83
2023/06/12 08:56:47;;;;;;;;;;;31.60;58.30;;;;;;5074204;28;19928;-82
2023/06/12 08:59:12;;;;;;;;;;;31.60;57.40;;;;;;5074229;28;20321;-83
2023/06/12 09:01:39;;;;;;;;;;;31.60;59.20;;;;;;5073060;28;19928;-82
2023/06/12 09:04:28;;;;;;;;;;;31.40;58.20;;;;;;5073766;28;19925;-83
2023/06/12 09:07:01;;;;;;;;;;;31.50;57.50;;;;;;5073305;28;19925;-82
2023/06/12 09:09:40;;;;;;;;;;;31.60;57.60;;;;;;5073680;28;19924;-82
2023/06/12 09:12:08;;;;;;;;;;;31.70;57.80;;;;;;5074239;28;19967;-85
2023/06/12 09:14:35;;;;;;;;;;;31.50;57.20;;;;;;5074223;28;20287;-82
2023/06/12 09:17:03;;;;;;;;;;;31.50;58.80;;;;;;5074506;28;19985;-82
2023/06/12 09:19:49;;;;;;;;;;;31.50;57.80;;;;;;5074719;28;20282;-82
2023/06/12 09:22:15;;;;;;;;;;;31.50;59.00;;;;;;5073532;28;19967;-82
2023/06/12 09:24:41;;;;;;;;;;;31.50;58.70;;;;;;5073117;28;19932;-83
2023/06/12 09:27:07;;;;;;;;;;;31.60;56.50;;;;;;5074229;28;19925;-82
2023/06/12 09:29:34;;;;;;;;;;;31.70;56.90;;;;;;5074095;28;19924;-83
2023/06/12 09:32:00;;;;;;;;;;;31.90;57.50;;;;;;5072852;28;19925;-82
2023/06/12 09:34:25;;;;;;;;;;;32.10;58.60;;;;;;5074340;28;19974;-81
2023/06/12 09:36:52;;;;;;;;;;;32.10;54.20;;;;;;5074530;28;19972;-82
2023/06/12 09:39:25;;;;;;;;;;;32.10;55.50;;;;;;5075249;28;20278;-82
2023/06/12 09:41:51;;;;;;;;;;;32.00;54.40;;;;;;5073116;28;19966;-82
2023/06/12 09:44:21;;;;;;;;;;;31.90;55.50;;;;;;5073991;28;20363;-83
2023/06/12 09:46:46;;;;;;;;;;;31.90;54.50;;;;;;5073817;28;19925;-82
2023/06/12 09:49:13;;;;;;;;;;;31.90;56.10;;;;;;5073850;28;20364;-82
2023/06/12 09:51:39;;;;;;;;;;;32.00;54.70;;;;;;5072958;28;19981;-82
2023/06/12 09:54:06;;;;;;;;;;;32.00;53.40;;;;;;5077954;28;20019;-82
2023/06/12 09:56:32;;;;;;;;;;;32.00;55.20;;;;;;5079153;28;19924;-82
2023/06/12 09:58:58;;;;;;;;;;;32.10;51.80;;;;;;5077468;28;20421;-81
2023/06/12 10:01:25;;;;;;;;;;;32.30;52.80;;;;;;5077700;28;19924;-82
2023/06/12 10:03:54;;;;;;;;;;;32.40;52.80;;;;;;5077606;28;19924;-84
2023/06/12 10:06:21;;;;;;;;;;;32.60;52.20;;;;;;5076751;28;20011;-83
2023/06/12 10:08:48;;;;;;;;;;;32.50;50.20;;;;;;5059894;28;19975;-83
2023/06/12 10:11:14;;;;;;;;;;;32.60;51.10;;;;;;5077672;28;20101;-81
2023/06/12 10:13:40;;;;;;;;;;;32.80;51.20;;;;;;5078044;28;19928;-81
2023/06/12 10:16:06;;;;;;;;;;;32.80;51.00;;;;;;5077401;28;20460;-81
2023/06/12 10:18:33;;;;;;;;;;;32.80;49.70;;;;;;5077429;28;19986;-82
2023/06/12 10:21:00;;;;;;;;;;;32.80;51.20;;;;;;5077310;28;19931;-81
2023/06/12 10:23:25;;;;;;;;;;;32.80;49.80;;;;;;5077339;28;19978;-81
2023/06/12 10:25:52;;;;;;;;;;;32.90;50.50;;;;;;5078257;28;19924;-81
2023/06/12 10:28:18;;;;;;;;;;;33.00;51.50;;;;;;5077826;28;20368;-80
2023/06/12 10:31:02;;;;;;;;;;;33.00;49.40;;;;;;5076225;28;19931;-83
2023/06/12 10:33:27;;;;;;;;;;;32.80;49.80;;;;;;5075915;28;19942;-81
2023/06/12 10:35:53;;;;;;;;;;;32.90;49.20;;;;;;5076823;28;20047;-81
2023/06/12 10:38:20;;;;;;;;;;;32.80;49.10;;;;;;5076747;28;19931;-81
2023/06/12 10:40:49;;;;;;;;;;;32.60;46.60;;;;;;5076824;28;20356;-82
2023/06/12 10:43:20;;;;;;;;;;;32.60;49.50;;;;;;5076812;28;20011;-82
2023/06/12 10:45:50;;;;;;;;;;;32.70;50.20;;;;;;5076796;28;19925;-82
2023/06/12 10:48:17;;;;;;;;;;;32.80;45.90;;;;;;5076840;28;19924;-81
2023/06/12 10:50:53;;;;;;;;;;;32.90;47.30;;;;;;5077175;28;20474;-85
2023/06/12 10:53:20;;;;;;;;;;;33.00;48.90;;;;;;5076467;28;19924;-81
2023/06/12 10:55:46;;;;;;;;;;;33.10;49.50;;;;;;5076331;28;19925;-80
2023/06/12 10:58:13;;;;;;;;;;;33.20;46.80;;;;;;5075729;28;19925;-81
2023/06/12 11:00:58;;;;;;;;;;;33.20;45.70;;;;;;5076128;28;20302;-81
2023/06/12 11:03:33;;;;;;;;;;;33.20;45.00;;;;;;5074916;28;19954;-83
2023/06/12 11:06:13;;;;;;;;;;;33.40;47.80;;;;;;5076933;28;19925;-82
2023/06/12 11:08:40;;;;;;;;;;;33.60;44.60;;;;;;5076471;28;19950;-83
2023/06/12 11:11:07;;;;;;;;;;;33.50;44.20;;;;;;5076355;28;19931;-82
2023/06/12 11:13:32;;;;;;;;;;;33.40;43.20;;;;;;5076208;28;19925;-82
2023/06/12 11:15:58;;;;;;;;;;;33.40;43.30;;;;;;5076277;28;20268;-82
2023/06/12 11:18:23;;;;;;;;;;;33.40;44.10;;;;;;5076250;28;19925;-83
2023/06/12 11:20:53;;;;;;;;;;;33.40;44.90;;;;;;5074988;28;19973;-83
2023/06/12 11:23:21;;;;;;;;;;;33.30;44.10;;;;;;5076149;28;20371;-81
2023/06/12 11:25:46;;;;;;;;;;;33.40;44.80;;;;;;5074903;28;19978;-84
2023/06/12 11:28:12;;;;;;;;;;;33.40;43.50;;;;;;5076257;28;19928;-81
2023/06/12 11:30:40;;;;;;;;;;;33.50;44.50;;;;;;5076071;28;20022;-81
2023/06/12 11:33:10;;;;;;;;;;;33.50;42.90;;;;;;5075201;28;20325;-81
2023/06/12 11:35:39;;;;;;;;;;;33.40;43.80;;;;;;5078491;28;20279;-80
2023/06/12 11:38:05;;;;;;;;;;;33.40;43.60;;;;;;5078986;28;19925;-81
2023/06/12 11:40:31;;;;;;;;;;;33.50;43.80;;;;;;5077921;28;20343;-82
2023/06/12 11:42:56;;;;;;;;;;;33.50;43.00;;;;;;5077448;28;19931;-82
2023/06/12 11:45:22;;;;;;;;;;;33.50;43.30;;;;;;5076720;28;19986;-81
2023/06/12 11:47:48;;;;;;;;;;;33.40;40.90;;;;;;5076673;28;20378;-81
2023/06/12 11:50:16;;;;;;;;;;;33.30;40.40;;;;;;5074857;28;20015;-81
2023/06/12 11:52:43;;;;;;;;;;;33.20;42.30;;;;;;5075633;28;19924;-81
2023/06/12 11:55:09;;;;;;;;;;;33.10;40.60;;;;;;5075447;28;19929;-81
2023/06/12 11:57:36;;;;;;;;;;;33.00;40.70;;;;;;5074601;28;19931;-81
2023/06/12 12:00:15;;;;;;;;;;;33.10;41.30;;;;;;5075490;28;19924;-81
2023/06/12 12:02:41;;;;;;;;;;;33.10;40.60;;;;;;5075459;28;19925;-82
2023/06/12 12:05:09;;;;;;;;;;;33.10;43.10;;;;;;5074232;28;19925;-81
2023/06/12 12:07:39;;;;;;;;;;;33.30;40.50;;;;;;5075206;28;19932;-80
2023/06/12 12:10:06;;;;;;;;;;;33.30;41.10;;;;;;5075479;28;19947;-80
2023/06/12 12:12:41;;;;;;;;;;;33.20;40.80;;;;;;5075706;28;20019;-81
2023/06/12 12:15:09;;;;;;;;;;;33.20;42.10;;;;;;5074089;28;19925;-82
2023/06/12 12:17:35;;;;;;;;;;;33.20;40.70;;;;;;5075220;28;19925;-81
2023/06/12 12:20:02;;;;;;;;;;;33.20;42.50;;;;;;5075534;28;19924;-80
2023/06/12 12:22:27;;;;;;;;;;;33.20;41.50;;;;;;5075012;28;20299;-81
2023/06/12 12:24:54;;;;;;;;;;;33.40;40.70;;;;;;5074963;28;19929;-81
2023/06/12 12:27:20;;;;;;;;;;;33.40;41.10;;;;;;5074967;28;19932;-80
2023/06/12 12:29:46;;;;;;;;;;;33.50;41.10;;;;;;5074710;28;19948;-82
2023/06/12 12:32:12;;;;;;;;;;;33.50;41.20;;;;;;5075147;28;20268;-81
2023/06/12 12:34:37;;;;;;;;;;;33.40;42.40;;;;;;5075047;28;20446;-81
2023/06/12 12:37:05;;;;;;;;;;;33.40;40.90;;;;;;5074722;28;19983;-86
2023/06/12 12:39:30;;;;;;;;;;;33.30;42.70;;;;;;5073667;28;20360;-81
2023/06/12 12:41:56;;;;;;;;;;;33.40;41.50;;;;;;5074696;28;19977;-80
2023/06/12 12:44:21;;;;;;;;;;;33.40;41.40;;;;;;5074860;28;19928;-81
2023/06/12 12:46:47;;;;;;;;;;;33.40;41.20;;;;;;5074606;28;19932;-80
2023/06/12 12:49:13;;;;;;;;;;;33.50;41.10;;;;;;5073313;28;19924;-82
2023/06/12 12:51:39;;;;;;;;;;;33.50;43.00;;;;;;5073950;28;19939;-82
2023/06/12 12:54:05;;;;;;;;;;;33.50;40.60;;;;;;5073879;28;20322;-81
2023/06/12 12:56:31;;;;;;;;;;;33.80;43.00;;;;;;5073820;28;19924;-83
2023/06/12 12:58:56;;;;;;;;;;;33.90;41.40;;;;;;5075035;28;19970;-82
2023/06/12 13:01:22;;;;;;;;;;;33.70;40.70;;;;;;5074359;28;19925;-82
2023/06/12 13:03:52;;;;;;;;;;;33.40;42.90;;;;;;5074336;28;19935;-82
2023/06/12 13:06:18;;;;;;;;;;;33.40;40.60;;;;;;5073915;28;20092;-83
2023/06/12 13:08:43;;;;;;;;;;;33.50;43.40;;;;;;5074405;28;19947;-83
2023/06/12 13:11:09;;;;;;;;;;;33.60;41.20;;;;;;5072902;28;19978;-84
2023/06/12 13:13:35;;;;;;;;;;;33.80;42.20;;;;;;5074220;28;19925;-82
2023/06/12 13:16:01;;;;;;;;;;;33.90;40.90;;;;;;5074343;28;19947;-82
2023/06/12 13:18:26;;;;;;;;;;;33.80;42.10;;;;;;5073256;28;20356;-82
2023/06/12 13:20:53;;;;;;;;;;;33.70;41.50;;;;;;5074247;28;19924;-83
2023/06/12 13:23:20;;;;;;;;;;;33.70;41.60;;;;;;5073911;28;20268;-83
2023/06/12 13:25:46;;;;;;;;;;;33.80;40.10;;;;;;5072838;28;19931;-81
2023/06/12 13:28:11;;;;;;;;;;;33.80;40.40;;;;;;5073836;28;20450;-83
2023/06/12 13:30:37;;;;;;;;;;;33.80;40.50;;;;;;5073066;28;19925;-82
2023/06/12 13:33:03;;;;;;;;;;;33.70;42.10;;;;;;5074299;28;19971;-83
2023/06/12 13:35:29;;;;;;;;;;;33.80;41.90;;;;;;5075728;28;20441;-81
2023/06/12 13:37:55;;;;;;;;;;;33.90;40.20;;;;;;5077388;28;19924;-84
2023/06/12 13:40:22;;;;;;;;;;;34.00;41.80;;;;;;5074033;28;20423;-82
2023/06/12 13:42:48;;;;;;;;;;;33.90;41.10;;;;;;5072809;28;19978;-81
2023/06/12 13:45:14;;;;;;;;;;;33.90;41.30;;;;;;5073820;28;19924;-82
2023/06/12 13:47:40;;;;;;;;;;;33.80;42.10;;;;;;5073745;28;19983;-83
2023/06/12 13:50:10;;;;;;;;;;;33.70;40.70;;;;;;5072970;28;19972;-81
2023/06/12 13:52:36;;;;;;;;;;;33.50;41.60;;;;;;5072839;28;19924;-82
2023/06/12 13:55:02;;;;;;;;;;;33.00;40.80;;;;;;5073771;28;19947;-82
2023/06/12 13:57:28;;;;;;;;;;;32.70;41.20;;;;;;5073699;28;20399;-82
2023/06/12 13:59:55;;;;;;;;;;;32.20;42.30;;;;;;5073645;28;19932;-81
2023/06/12 14:02:21;;;;;;;;;;;32.10;42.50;;;;;;5073647;28;20011;-82
2023/06/12 14:04:47;;;;;;;;;;;32.10;43.60;;;;;;5073652;28;19947;-82
2023/06/12 14:07:13;;;;;;;;;;;32.30;43.20;;;;;;5073510;28;20379;-82
2023/06/12 14:09:39;;;;;;;;;;;32.30;42.70;;;;;;5073565;28;19929;-82
2023/06/12 14:12:05;;;;;;;;;;;32.00;42.20;;;;;;5072375;28;19925;-82
2023/06/12 14:14:31;;;;;;;;;;;31.60;42.50;;;;;;5073522;28;19925;-82